KMLP - Mullan Pass
Updated: Fri, 17-Nov-2017 10:01pm PST
Overcast
Overcast
 Wind from WSW
Wind: WSW at 8 mph , 13 km/h
Temperature : 23°F , -5°C
Wind Chill : 14°F , -10°C
Dew Point : 18°F , -8°C
Humidity : 80%
Barometer : 30.09 inHg , 1019 hPa
Clouds : Overcast
Visibility : 10 miles , 16 km
2017/11/18 06:01 KMLP 180601Z AUTO 25007KT 200V310 10SM SCT008 BKN014 OVC022 M05/M08 A3009 RMK AO2 T10501078 TSNO

 

KCOE - Coeur d Alene
Updated: Fri, 17-Nov-2017 9:56pm PST
Partly cloudy
Partly cloudy
 Wind from calm
Wind: Calm
Temperature : 34°F , 1°C
Dew Point : 28°F , -2°C
Humidity : 81%
Barometer : 30.22 inHg , 1023.4 hPa
Clouds : Partly cloudy
Visibility : 10 miles , 16 km
2017/11/18 05:56 KCOE 180556Z AUTO 00000KT 10SM FEW070 SCT110 01/M02 A3022 RMK AO2 SLP271 T00111017 10050 20011 51030 FZRANO

 

KLWS - Lewiston
Updated: Fri, 17-Nov-2017 9:56pm PST
Overcast
Overcast
 Wind from calm
Wind: Calm
Temperature : 39°F , 4°C
Dew Point : 30°F , -1°C
Humidity : 70%
Barometer : 30.29 inHg , 1025.7 hPa
Clouds : Overcast
Visibility : 10 miles , 16 km
2017/11/18 05:56 KLWS 180556Z 00000KT 10SM OVC060 04/M01 A3029 RMK AO2 SLP267 T00391011 10067 20033 53023

 

KGEG - Spokane Intl
Updated: Fri, 17-Nov-2017 9:53pm PST
Mostly cloudy
Mostly cloudy
 Wind from S
Wind: S at 14 mph , 22 km/h, Gust: 18 mph , 30 km/h
Temperature : 34°F , 1°C
Wind Chill : 25°F , -4°C
Dew Point : 28°F , -2°C
Humidity : 81%
Barometer : 30.20 inHg , 1022.7 hPa
Clouds : Mostly cloudy
Visibility : 10 miles , 16 km
2017/11/18 05:53 KGEG 180553Z 19012G16KT 10SM FEW120 BKN200 01/M02 A3020 RMK AO2 SLP244 T00111022 10050 20011 51025